createdAt,value
2022-11-16T00:00:51.020Z,98232.31
2022-11-16T00:03:41.275Z,98231.91
2022-11-16T00:06:31.597Z,98224.50
2022-11-16T00:09:23.977Z,98229.97
2022-11-16T00:12:13.384Z,98228.81
2022-11-16T00:15:02.824Z,98234.25
2022-11-16T00:17:53.742Z,98219.03
2022-11-16T00:20:43.194Z,98231.16
2022-11-16T00:23:32.897Z,98232.31
2022-11-16T00:26:23.166Z,98227.66
2022-11-16T00:29:16.621Z,98230.00
2022-11-16T00:32:06.875Z,98224.91
2022-11-16T00:34:57.804Z,98229.66
2022-11-16T00:37:48.433Z,98231.59
2022-11-16T00:40:38.050Z,98219.09
2022-11-16T00:43:28.914Z,98214.72
2022-11-16T00:46:18.518Z,98225.28
2022-11-16T00:49:08.252Z,98219.03
2022-11-16T00:51:59.203Z,98218.91
2022-11-16T00:54:49.124Z,98223.94
2022-11-16T00:57:38.565Z,98217.22
2022-11-16T01:00:28.107Z,98220.22
2022-11-16T01:03:17.672Z,98222.50
2022-11-16T01:06:15.028Z,98216.53
2022-11-16T01:09:05.932Z,98215.72
2022-11-16T01:12:10.645Z,98219.09
2022-11-16T01:15:00.149Z,98211.94
2022-11-16T01:17:50.102Z,98219.75
2022-11-16T01:20:42.536Z,98210.84
2022-11-16T01:23:31.724Z,98207.69
2022-11-16T01:26:22.514Z,98201.81
2022-11-16T01:29:11.858Z,98194.81
2022-11-16T01:32:06.584Z,98196.38
2022-11-16T01:34:56.475Z,98194.03
2022-11-16T01:37:49.433Z,98199.47
2022-11-16T01:40:39.808Z,98184.69
2022-11-16T01:43:30.615Z,98184.31
2022-11-16T01:46:26.698Z,98188.25
2022-11-16T01:49:20.550Z,98181.59
2022-11-16T01:52:18.026Z,98194.94
2022-11-16T01:55:09.040Z,98186.75
2022-11-16T01:58:18.642Z,98185.63
2022-11-16T02:01:12.699Z,98190.44
2022-11-16T02:04:12.290Z,98193.94
2022-11-16T02:07:18.129Z,98194.34
2022-11-16T02:10:20.651Z,98196.31
2022-11-16T02:13:29.527Z,98195.22
2022-11-16T02:16:34.579Z,98188.59
2022-11-16T02:20:14.925Z,98180.91
2022-11-16T02:23:53.150Z,98184.34
2022-11-16T02:27:31.739Z,98172.53
2022-11-16T02:30:23.622Z,98186.63
2022-11-16T02:33:18.201Z,98185.09
2022-11-16T02:36:13.144Z,98182.63
2022-11-16T02:39:08.226Z,98187.28
2022-11-16T02:42:00.828Z,98184.56
2022-11-16T02:44:55.546Z,98184.94
2022-11-16T02:47:48.232Z,98187.94
2022-11-16T02:50:40.380Z,98186.38
2022-11-16T02:53:33.738Z,98180.00
2022-11-16T02:56:24.494Z,98170.59
2022-11-16T02:59:17.797Z,98174.94
2022-11-16T03:02:26.070Z,98173.78
2022-11-16T03:05:32.133Z,98167.09
2022-11-16T03:08:31.905Z,98167.09
2022-11-16T03:11:42.406Z,98161.97
2022-11-16T03:14:40.020Z,98159.84
2022-11-16T03:17:33.972Z,98165.31
2022-11-16T03:20:29.312Z,98161.66
2022-11-16T03:23:18.913Z,98170.16
2022-11-16T03:26:13.223Z,98169.34
2022-11-16T03:29:09.736Z,98171.66
2022-11-16T03:32:10.135Z,98159.13
2022-11-16T03:35:07.990Z,98154.00
2022-11-16T03:38:01.938Z,98159.03
2022-11-16T03:40:52.576Z,98160.53
2022-11-16T03:43:44.886Z,98155.41
2022-11-16T03:46:35.706Z,98154.84
2022-11-16T03:49:25.690Z,98150.09
2022-11-16T03:52:18.511Z,98146.38
2022-11-16T03:55:11.368Z,98153.25
2022-11-16T03:58:01.309Z,98150.75
2022-11-16T04:00:50.831Z,98154.91
2022-11-16T04:03:40.167Z,98170.41
2022-11-16T04:06:49.429Z,98164.94
2022-11-16T04:09:55.936Z,98162.94
2022-11-16T04:13:05.202Z,98168.16
2022-11-16T04:16:12.360Z,98170.09
2022-11-16T04:19:19.419Z,98171.50
2022-11-16T04:22:35.012Z,98176.53
2022-11-16T04:25:28.622Z,98174.44
2022-11-16T04:28:21.945Z,98173.56
2022-11-16T04:31:35.749Z,98169.44
2022-11-16T04:34:47.177Z,98167.78
2022-11-16T04:37:56.423Z,98166.13
2022-11-16T04:40:53.147Z,98173.41
2022-11-16T04:43:45.784Z,98175.34
2022-11-16T04:46:52.357Z,98176.03
2022-11-16T04:49:41.804Z,98188.00
2022-11-16T04:52:31.430Z,98193.75
2022-11-16T04:55:21.310Z,98187.38
2022-11-16T04:58:12.779Z,98191.16
2022-11-16T05:01:03.852Z,98187.13
2022-11-16T05:03:53.546Z,98188.88
2022-11-16T05:06:43.001Z,98178.28
2022-11-16T05:09:32.403Z,98187.66
2022-11-16T05:12:24.577Z,98196.59
2022-11-16T05:15:19.924Z,98198.88
2022-11-16T05:18:11.973Z,98205.00
2022-11-16T05:21:02.848Z,98191.75
2022-11-16T05:24:15.138Z,98187.91
2022-11-16T05:27:06.694Z,98192.53
2022-11-16T05:29:56.311Z,98202.28
2022-11-16T05:32:46.729Z,98216.66
2022-11-16T05:35:39.525Z,98212.63
2022-11-16T05:38:29.226Z,98202.00
2022-11-16T05:41:21.435Z,98207.00
2022-11-16T05:44:11.123Z,98203.81
2022-11-16T05:47:01.388Z,98205.91
2022-11-16T05:49:51.237Z,98210.75
2022-11-16T05:55:36.269Z,98215.22
2022-11-16T05:58:25.754Z,98205.28
2022-11-16T06:01:15.965Z,98216.00
2022-11-16T06:04:05.299Z,98215.91
2022-11-16T06:06:55.390Z,98212.28
2022-11-16T06:09:52.000Z,98208.44
2022-11-16T06:12:43.999Z,98211.63
2022-11-16T06:15:33.263Z,98215.47
2022-11-16T06:18:23.316Z,98211.97
2022-11-16T06:21:14.389Z,98206.78
2022-11-16T06:24:09.001Z,98211.44
2022-11-16T06:27:00.553Z,98211.22
2022-11-16T06:29:50.244Z,98233.38
2022-11-16T06:32:40.126Z,98220.88
2022-11-16T06:35:30.806Z,98223.66
2022-11-16T06:38:20.800Z,98228.75
2022-11-16T06:41:12.349Z,98230.66
2022-11-16T06:44:08.325Z,98235.66
2022-11-16T06:47:00.768Z,98231.03
2022-11-16T06:49:50.538Z,98231.72
2022-11-16T06:52:43.958Z,98244.75
2022-11-16T06:55:33.895Z,98237.97
2022-11-16T06:58:25.833Z,98247.25
2022-11-16T07:01:16.562Z,98247.47
2022-11-16T07:04:12.016Z,98252.03
2022-11-16T07:07:03.823Z,98243.78
2022-11-16T07:09:55.227Z,98248.75
2022-11-16T07:12:44.654Z,98241.97
2022-11-16T07:15:36.196Z,98253.19
2022-11-16T07:18:27.244Z,98252.53
2022-11-16T07:21:18.613Z,98243.59
2022-11-16T07:24:08.536Z,98249.03
2022-11-16T07:26:58.501Z,98253.63
2022-11-16T07:29:51.020Z,98255.47
2022-11-16T07:33:00.957Z,98246.75
2022-11-16T07:36:29.842Z,98255.25
2022-11-16T07:39:21.930Z,98258.41
2022-11-16T07:42:11.904Z,98266.78
2022-11-16T07:45:27.428Z,98262.81
2022-11-16T07:48:21.038Z,98260.91
2022-11-16T07:51:38.562Z,98257.88
2022-11-16T07:54:48.313Z,98263.59
2022-11-16T07:57:38.395Z,98267.59
2022-11-16T08:00:31.081Z,98258.66
2022-11-16T08:03:30.167Z,98263.72
2022-11-16T08:06:25.093Z,98270.84
2022-11-16T08:09:17.268Z,98269.03
2022-11-16T08:12:06.936Z,98264.38
2022-11-16T08:14:56.956Z,98260.19
2022-11-16T08:17:46.506Z,98259.41
2022-11-16T08:20:36.701Z,98256.59
2022-11-16T08:23:26.409Z,98259.97
2022-11-16T08:26:19.396Z,98258.75
2022-11-16T08:29:15.323Z,98261.59
2022-11-16T08:32:10.259Z,98257.72
2022-11-16T08:34:59.751Z,98264.75
2022-11-16T08:37:49.103Z,98257.03
2022-11-16T08:40:38.707Z,98255.81
2022-11-16T08:43:30.481Z,98249.25
2022-11-16T08:46:19.942Z,98256.34
2022-11-16T08:49:14.243Z,98244.38
2022-11-16T08:52:03.854Z,98264.25
2022-11-16T08:54:54.439Z,98251.91
2022-11-16T08:57:44.120Z,98249.19
2022-11-16T09:00:37.177Z,98247.31
2022-11-16T09:03:26.544Z,98248.31
2022-11-16T09:06:16.618Z,98267.88
2022-11-16T09:09:06.414Z,98267.53
2022-11-16T09:11:57.163Z,98269.66
2022-11-16T09:14:46.454Z,98281.19
2022-11-16T09:17:37.164Z,98273.81
2022-11-16T09:20:27.468Z,98277.09
2022-11-16T09:23:20.929Z,98280.34
2022-11-16T09:26:14.702Z,98280.47
2022-11-16T09:29:04.704Z,98287.19
2022-11-16T09:31:53.924Z,98269.78
2022-11-16T09:34:44.659Z,98267.97
2022-11-16T09:37:33.950Z,98278.31
2022-11-16T09:40:23.802Z,98278.06
2022-11-16T09:43:28.299Z,98275.56
2022-11-16T09:46:28.032Z,98259.16
2022-11-16T09:49:22.626Z,98273.13
2022-11-16T09:52:23.542Z,98284.63
2022-11-16T09:55:26.137Z,98271.56
2022-11-16T09:58:21.333Z,98267.09
2022-11-16T10:01:26.274Z,98268.06
2022-11-16T10:04:21.576Z,98271.41
2022-11-16T10:07:17.972Z,98258.44
2022-11-16T10:10:15.628Z,98261.75
2022-11-16T10:13:16.110Z,98258.84
2022-11-16T10:16:14.806Z,98259.41
2022-11-16T10:19:16.545Z,98261.50
2022-11-16T10:22:19.869Z,98267.84
2022-11-16T10:25:17.444Z,98262.47
2022-11-16T10:28:28.807Z,98253.94
2022-11-16T10:31:30.842Z,98259.91
2022-11-16T10:34:26.393Z,98265.16
2022-11-16T10:37:16.127Z,98261.81
2022-11-16T10:40:22.302Z,98259.94
2022-11-16T10:43:16.551Z,98270.28
2022-11-16T10:46:15.619Z,98271.56
2022-11-16T10:49:12.111Z,98261.25
2022-11-16T10:52:01.534Z,98266.94
2022-11-16T10:54:51.315Z,98259.63
2022-11-16T11:00:45.575Z,98263.56
2022-11-16T11:03:35.464Z,98250.09
2022-11-16T11:06:27.845Z,98252.94
2022-11-16T11:09:29.696Z,98241.38
2022-11-16T11:12:41.883Z,98229.88
2022-11-16T11:15:31.506Z,98225.94
2022-11-16T11:18:30.208Z,98230.22
2022-11-16T11:21:24.251Z,98221.78
2022-11-16T11:24:43.452Z,98215.94
2022-11-16T11:27:35.056Z,98214.66
2022-11-16T11:30:25.129Z,98211.09
2022-11-16T11:33:17.257Z,98202.94
2022-11-16T11:36:14.150Z,98208.47
2022-11-16T11:39:08.106Z,98203.19
2022-11-16T11:42:22.228Z,98197.22
2022-11-16T11:45:16.663Z,98193.97
2022-11-16T11:48:22.548Z,98194.41
2022-11-16T11:51:23.354Z,98195.78
2022-11-16T11:54:24.222Z,98192.22
2022-11-16T11:57:20.621Z,98196.41
2022-11-16T12:00:14.789Z,98184.06
2022-11-16T12:03:41.196Z,98177.31
2022-11-16T12:06:43.749Z,98167.88
2022-11-16T12:09:44.321Z,98162.97
2022-11-16T12:12:52.691Z,98167.97
2022-11-16T12:16:00.247Z,98169.38
2022-11-16T12:19:21.177Z,98168.31
2022-11-16T12:22:31.266Z,98154.69
2022-11-16T12:25:27.510Z,98167.06
2022-11-16T12:28:35.244Z,98160.78
2022-11-16T12:31:54.279Z,98161.16
2022-11-16T12:35:02.285Z,98165.00
2022-11-16T12:38:05.137Z,98154.34
2022-11-16T12:41:34.214Z,98153.19
2022-11-16T12:44:38.915Z,98156.16
2022-11-16T12:47:44.425Z,98162.09
2022-11-16T12:50:52.903Z,98160.72
2022-11-16T12:54:06.275Z,98164.50
2022-11-16T12:57:08.456Z,98164.44
2022-11-16T13:00:09.182Z,98151.69
2022-11-16T13:03:15.397Z,98136.66
2022-11-16T13:06:08.778Z,98136.47
2022-11-16T13:09:07.984Z,98122.78
2022-11-16T13:12:01.915Z,98113.56
2022-11-16T13:14:54.985Z,98122.91
2022-11-16T13:17:44.546Z,98133.81
2022-11-16T13:20:46.276Z,98119.63
2022-11-16T13:23:48.931Z,98106.28
2022-11-16T13:26:46.166Z,98110.28
2022-11-16T13:29:44.487Z,98105.72
2022-11-16T13:32:57.432Z,98093.00
2022-11-16T13:35:46.820Z,98090.25
2022-11-16T13:38:53.471Z,98096.03
2022-11-16T13:41:45.644Z,98091.47
2022-11-16T13:44:35.967Z,98079.34
2022-11-16T13:47:30.514Z,98078.19
2022-11-16T13:50:23.081Z,98073.88
2022-11-16T13:56:52.713Z,98066.81
2022-11-16T13:59:42.386Z,98057.81
2022-11-16T14:02:34.247Z,98054.72
2022-11-16T14:05:41.782Z,98055.53
2022-11-16T14:08:51.012Z,98047.31
2022-11-16T14:11:41.575Z,98051.25
2022-11-16T14:15:13.969Z,98049.28
2022-11-16T14:18:33.027Z,98066.56
2022-11-16T14:21:40.546Z,98064.59
2022-11-16T14:24:35.124Z,98073.22
2022-11-16T14:27:31.879Z,98075.53
2022-11-16T14:30:26.509Z,98073.59
2022-11-16T14:33:35.081Z,98071.16
2022-11-16T14:36:41.404Z,98078.25
2022-11-16T14:39:41.330Z,98080.97
2022-11-16T14:42:48.141Z,98069.63
2022-11-16T14:45:50.362Z,98065.69
2022-11-16T14:48:47.156Z,98060.59
2022-11-16T14:51:40.833Z,98060.19
2022-11-16T14:54:39.279Z,98062.94
2022-11-16T14:57:28.664Z,98046.47
2022-11-16T15:00:25.906Z,98056.66
2022-11-16T15:03:16.632Z,98049.97
2022-11-16T15:06:08.846Z,98046.06
2022-11-16T15:09:03.455Z,98046.44
2022-11-16T15:12:10.960Z,98044.88
2022-11-16T15:15:07.927Z,98053.88
2022-11-16T15:18:13.207Z,98053.06
2022-11-16T15:21:03.958Z,98043.25
2022-11-16T15:24:23.631Z,98054.22
2022-11-16T15:27:13.947Z,98052.97
2022-11-16T15:30:15.046Z,98054.94
2022-11-16T15:33:11.503Z,98065.84
2022-11-16T15:36:01.083Z,98047.81
2022-11-16T15:38:54.404Z,98052.47
2022-11-16T15:41:44.205Z,98056.41
2022-11-16T15:44:34.397Z,98051.66
2022-11-16T15:47:25.621Z,98051.63
2022-11-16T15:50:19.597Z,98050.44
2022-11-16T15:53:36.795Z,98053.91
2022-11-16T15:56:34.069Z,98051.53
2022-11-16T15:59:29.265Z,98057.75
2022-11-16T16:02:22.100Z,98060.06
2022-11-16T16:05:23.997Z,98054.09
2022-11-16T16:08:33.429Z,98061.47
2022-11-16T16:11:30.921Z,98058.69
2022-11-16T16:14:27.811Z,98064.06
2022-11-16T16:17:26.158Z,98053.81
2022-11-16T16:20:19.966Z,98058.84
2022-11-16T16:23:15.358Z,98053.28
2022-11-16T16:26:05.551Z,98054.41
2022-11-16T16:28:56.878Z,98056.28
2022-11-16T16:31:46.432Z,98060.13
2022-11-16T16:34:39.258Z,98059.34
2022-11-16T16:37:33.481Z,98054.97
2022-11-16T16:40:22.988Z,98062.09
2022-11-16T16:43:12.420Z,98054.69
2022-11-16T16:46:05.153Z,98063.34
2022-11-16T16:48:54.995Z,98060.97
2022-11-16T16:51:44.391Z,98066.47
2022-11-16T16:54:33.706Z,98059.81
2022-11-16T16:57:23.116Z,98061.72
2022-11-16T17:00:14.047Z,98064.00
2022-11-16T17:03:04.927Z,98056.06
2022-11-16T17:05:54.595Z,98065.06
2022-11-16T17:08:43.808Z,98067.78
2022-11-16T17:11:33.129Z,98073.63
2022-11-16T17:14:24.614Z,98080.25
2022-11-16T17:17:14.199Z,98076.34
2022-11-16T17:20:06.225Z,98074.78
2022-11-16T17:22:55.605Z,98075.59
2022-11-16T17:25:45.207Z,98073.69
2022-11-16T17:28:35.298Z,98073.31
2022-11-16T17:31:25.725Z,98066.31
2022-11-16T17:34:15.401Z,98070.63
2022-11-16T17:37:06.252Z,98068.31
2022-11-16T17:39:55.604Z,98063.19
2022-11-16T17:42:45.246Z,98072.56
2022-11-16T17:45:34.529Z,98064.72
2022-11-16T17:48:23.803Z,98070.19
2022-11-16T17:51:14.967Z,98071.69
2022-11-16T17:54:06.101Z,98068.56
2022-11-16T17:56:55.362Z,98072.84
2022-11-16T17:59:44.755Z,98074.69
2022-11-16T18:02:34.036Z,98070.72
2022-11-16T18:05:23.416Z,98074.91
2022-11-16T18:08:13.533Z,98070.06
2022-11-16T18:11:19.683Z,98083.28
2022-11-16T18:14:10.648Z,98075.34
2022-11-16T18:17:00.074Z,98074.88
2022-11-16T18:19:49.387Z,98080.00
2022-11-16T18:22:39.030Z,98076.50
2022-11-16T18:25:28.443Z,98076.47
2022-11-16T18:28:20.658Z,98078.78
2022-11-16T18:31:13.303Z,98074.75
2022-11-16T18:34:03.179Z,98073.13
2022-11-16T18:36:52.548Z,98080.94
2022-11-16T18:39:41.882Z,98080.16
2022-11-16T18:42:31.778Z,98088.00
2022-11-16T18:45:22.785Z,98084.88
2022-11-16T18:48:12.118Z,98088.84
2022-11-16T18:51:01.964Z,98087.63
2022-11-16T18:53:51.893Z,98088.06
2022-11-16T18:56:41.383Z,98095.94
2022-11-16T18:59:30.685Z,98102.22
2022-11-16T19:02:21.678Z,98102.69
2022-11-16T19:05:11.223Z,98104.28
2022-11-16T19:08:00.534Z,98105.88
2022-11-16T19:10:50.213Z,98110.28
2022-11-16T19:13:40.807Z,98109.53
2022-11-16T19:16:30.878Z,98099.41
2022-11-16T19:19:21.812Z,98093.25
2022-11-16T19:22:11.147Z,98107.72
2022-11-16T19:25:05.873Z,98103.50
2022-11-16T19:27:55.568Z,98103.50
2022-11-16T19:30:44.922Z,98113.66
2022-11-16T19:33:34.488Z,98104.34
2022-11-16T19:36:26.694Z,98103.56
2022-11-16T19:39:16.066Z,98105.84
2022-11-16T19:42:05.988Z,98105.47
2022-11-16T19:44:55.305Z,98109.38
2022-11-16T19:47:44.754Z,98101.94
2022-11-16T19:50:35.889Z,98099.19
2022-11-16T19:53:26.990Z,98094.03
2022-11-16T19:56:18.785Z,98101.09
2022-11-16T19:59:08.164Z,98099.94
2022-11-16T20:01:57.789Z,98115.59
2022-11-16T20:04:47.134Z,98115.19
2022-11-16T20:07:38.972Z,98114.38
2022-11-16T20:10:32.387Z,98103.00
2022-11-16T20:13:22.138Z,98129.28
2022-11-16T20:16:14.346Z,98116.38
2022-11-16T20:19:04.421Z,98124.25
2022-11-16T20:21:55.440Z,98124.25
2022-11-16T20:24:45.033Z,98125.44
2022-11-16T20:27:36.073Z,98119.56
2022-11-16T20:30:25.421Z,98122.69
2022-11-16T20:33:15.092Z,98123.88
2022-11-16T20:36:05.939Z,98116.84
2022-11-16T20:38:55.985Z,98125.44
2022-11-16T20:41:45.603Z,98117.66
2022-11-16T20:44:36.621Z,98122.38
2022-11-16T20:47:28.236Z,98118.41
2022-11-16T20:50:19.530Z,98124.69
2022-11-16T20:53:08.979Z,98124.69
2022-11-16T20:55:59.594Z,98127.84
2022-11-16T20:58:51.302Z,98118.34
2022-11-16T21:01:47.858Z,98120.72
2022-11-16T21:04:38.658Z,98118.00
2022-11-16T21:07:30.853Z,98112.47
2022-11-16T21:10:21.502Z,98121.84
2022-11-16T21:13:35.533Z,98130.91
2022-11-16T21:16:25.565Z,98122.22
2022-11-16T21:19:17.292Z,98130.78
2022-11-16T21:22:07.888Z,98130.41
2022-11-16T21:24:57.912Z,98109.22
2022-11-16T21:27:47.530Z,98123.28
2022-11-16T21:30:41.050Z,98135.44
2022-11-16T21:33:32.796Z,98134.59
2022-11-16T21:36:26.491Z,98130.28
2022-11-16T21:39:16.039Z,98121.22
2022-11-16T21:42:06.911Z,98132.16
2022-11-16T21:44:56.683Z,98120.25
2022-11-16T21:47:46.460Z,98127.34
2022-11-16T21:50:36.864Z,98141.38
2022-11-16T21:53:27.703Z,98129.13
2022-11-16T21:56:20.322Z,98138.47
2022-11-16T21:59:10.035Z,98136.03
2022-11-16T22:02:02.325Z,98145.38
2022-11-16T22:05:09.346Z,98150.28
2022-11-16T22:07:58.590Z,98162.72
2022-11-16T22:10:52.635Z,98163.31
2022-11-16T22:13:43.165Z,98177.44
2022-11-16T22:16:32.544Z,98174.19
2022-11-16T22:19:22.276Z,98171.75
2022-11-16T22:22:11.695Z,98182.66
2022-11-16T22:25:01.329Z,98184.97
2022-11-16T22:28:19.065Z,98189.28
2022-11-16T22:31:03.192Z,98191.22
2022-11-16T22:33:54.725Z,98195.16
2022-11-16T22:36:43.972Z,98203.03
2022-11-16T22:39:33.568Z,98190.91
2022-11-16T22:42:23.248Z,98185.03
2022-11-16T22:45:14.728Z,98192.53
2022-11-16T22:48:04.059Z,98191.34
2022-11-16T22:51:05.180Z,98196.78
2022-11-16T22:53:55.739Z,98194.44
2022-11-16T22:56:45.377Z,98194.00
2022-11-16T22:59:35.215Z,98206.13
2022-11-16T23:02:26.247Z,98195.22
2022-11-16T23:05:16.334Z,98203.81
2022-11-16T23:08:06.410Z,98202.28
2022-11-16T23:11:18.761Z,98201.88
2022-11-16T23:14:31.256Z,98192.94
2022-11-16T23:17:20.772Z,98207.88
2022-11-16T23:20:30.379Z,98196.84
2022-11-16T23:23:38.252Z,98204.34
2022-11-16T23:26:45.119Z,98204.72
2022-11-16T23:29:34.701Z,98218.00
2022-11-16T23:32:24.215Z,98210.59
2022-11-16T23:35:15.572Z,98218.41
2022-11-16T23:38:07.562Z,98215.25
2022-11-16T23:40:58.627Z,98215.63
2022-11-16T23:43:59.819Z,98224.22
2022-11-16T23:46:49.382Z,98217.16
2022-11-16T23:49:39.317Z,98221.09
2022-11-16T23:52:30.362Z,98225.34
2022-11-16T23:55:19.863Z,98221.84
2022-11-16T23:58:14.713Z,98225.59
